• Join FlightAware (Why Join?)
  • Login
  • US Flag GB Flag 
11:56 EST


 

Airport Tracker/Info


-or-


 

Live Flight TrackerFlight Track Log ✈ UPS1337 ✈ 19-Feb-2014 ✈ KPIE - KSDF

Flight Track Log - Related Links

Times and Time Zones

All times are in EST time to prevent confusion due to time zone crossing. See the UPS1337 flight status page for this flight to view local times or setup timezone preferences in your user account.

Time Position Orientation Groundspeed Altitude Reporting Facility
EST Latitude Longitude Course Direction KTS MPH feet Rate Location/Type
21:44 27.9000 -82.6833 180° South 167 192 600  Level Tampa TRACON
21:45 27.8333 -82.6833 180° South 244 281 3,000 3,180 Climbing Tampa TRACON
21:46 27.8167 -82.7667 257° West 282 325 7,300 2,760 Climbing Tampa TRACON
21:53 28.6387 -82.9025 257° West 460 529 26,500 2,460 Climbing FlightAware ADS-B (KMCO)
21:54 28.7217 -82.9164 257° West 453 521 27,600 2,040 Climbing Jacksonville Center
21:55 28.8469 -82.9353 352° North 453 521 30,100 2,160 Climbing Jacksonville Center
21:56 28.9681 -82.9542 352° North 448 516 32,000 900 Climbing Jacksonville Center
21:57 29.0911 -82.9711 353° North 443 510 32,000  Level Jacksonville Center
21:58 29.2122 -82.9900 352° North 443 510 32,000  Level Jacksonville Center
21:59 29.3333 -83.0094 352° North 443 510 32,000 -60 Level Jacksonville Center
22:00 29.4544 -83.0261 353° North 443 510 31,900 -60 Descending Jacksonville Center
22:01 29.5775 -83.0503 350° North 448 516 31,900  Level Jacksonville Center
22:02 29.6964 -83.0814 347° North 442 509 32,000  Climbing Jacksonville Center
22:03 29.8111 -83.1200 344° North 436 502 32,000  Level Jacksonville Center
22:09 30.5152 -83.3533 344° North 436 502 32,000  Level FlightAware ADS-B (KMCO)
22:14 31.0243 -83.5252 344° North 439 505 32,000  Level FlightAware ADS-B (KTLH)
22:14 31.1339 -83.5623 344° North 438 504 32,000  Level FlightAware ADS-B (KTLH)
22:15 31.1955 -83.5834 344° North 439 505 32,000  Level FlightAware ADS-B (KTLH)
22:16 31.2696 -83.6088 344° North 439 505 32,000  Level FlightAware ADS-B (KTLH)
22:16 31.3244 -83.6306 344° North 435 501 32,000  Level Atlanta Center
22:17 31.4414 -83.6689 344° North 435 501 32,000  Level Atlanta Center
22:18 31.5542 -83.7075 344° North 435 501 32,000  Level Atlanta Center
22:19 31.6628 -83.7364 347° North 435 501 32,000  Level Atlanta Center
22:20 31.7839 -83.7578 351° North 435 501 32,000  Level Atlanta Center
22:21 31.9133 -83.7844 350° North 443 510 32,000  Level Atlanta Center
22:22 32.0344 -83.8086 350° North 448 516 32,000  Level Atlanta Center
22:23 32.1556 -83.8303 351° North 448 516 32,000  Level Atlanta Center
22:24 32.2892 -83.8569 350° North 448 516 32,000  Level Atlanta Center
22:25 32.4103 -83.8814 350° North 448 516 32,000  Level Atlanta Center
22:26 32.5333 -83.9033 351° North 448 516 32,000  Level Atlanta Center
22:27 32.6567 -83.9278 351° North 448 516 32,000  Level Atlanta Center
22:28 32.7797 -83.9525 350° North 448 516 32,000  Level Atlanta Center
22:29 32.9050 -83.9794 350° North 448 516 32,000  Level Atlanta Center
22:30 33.0281 -84.0017 351° North 448 516 32,000  Level Atlanta Center
22:31 33.1408 -84.0239 351° North 448 516 32,000  Level Atlanta Center
22:32 33.2744 -84.0511 350° North 448 516 32,000  Level Atlanta Center
22:33 33.3956 -84.0736 351° North 448 516 32,000  Level Atlanta Center
22:34 33.5186 -84.0986 350° North 443 510 32,000  Level Atlanta Center
22:39 34.1886 -84.2278 350° North 440 506 32,000  Level FlightAware ADS-B (KDZJ)
22:40 34.2699 -84.2442 351° North 441 507 32,000  Level FlightAware ADS-B (KDZJ)
22:41 34.3536 -84.2611 351° North 443 510 32,000  Level FlightAware ADS-B (KDZJ)
22:41 34.4351 -84.2774 351° North 443 510 32,000  Level FlightAware ADS-B (KDZJ)
22:42 34.5183 -84.2942 351° North 442 509 32,000  Level FlightAware ADS-B (KDZJ)
22:43 34.6000 -84.3107 351° North 442 509 32,000  Level FlightAware ADS-B (KDZJ)
22:43 34.6787 -84.3267 351° North 441 507 32,000  Level FlightAware ADS-B (KDZJ)
22:44 34.7628 -84.3437 351° North 441 507 32,000  Level FlightAware ADS-B (KDZJ)
22:45 34.8437 -84.3602 351° North 440 506 32,000  Level FlightAware ADS-B (KDZJ)
22:45 34.9251 -84.3768 351° North 440 506 32,000  Level FlightAware ADS-B (KDZJ)
22:46 34.9988 -84.3919 350° North 441 507 32,000  Level FlightAware ADS-B (KDZJ)
22:47 35.0922 -84.4110 350° North 442 509 32,000  Level FlightAware ADS-B (KDZJ)
22:47 35.1739 -84.4276 351° North 443 510 32,000  Level FlightAware ADS-B (KDZJ)
22:48 35.2574 -84.4448 350° North 443 510 32,000  Level FlightAware ADS-B (KDZJ)
22:49 35.3383 -84.4613 351° North 444 511 32,000  Level FlightAware ADS-B (KDZJ)
22:49 35.4186 -84.4780 350° North 445 512 32,000  Level FlightAware ADS-B (KDZJ)
22:51 35.6112 -84.5179 350° North 444 511 32,000 -300 Level FlightAware ADS-B (KMDQ)
22:52 35.7144 -84.5397 350° North 450 518 31,400 -300 Descending Indianapolis Center
22:58 36.5074 -84.7058 350° North 451 519 30,000 -240 Descending FlightAware ADS-B (KBRY)
22:59 36.6112 -84.7279 350° North 451 519 30,000 -1,440 Level FlightAware ADS-B (KBRY)
23:01 36.8334 -84.7752 350° North 450 518 25,600 -2,160 Descending FlightAware ADS-B (KBRY)
23:07 37.4849 -84.9154 350° North 343 395 13,100 -1,800 Descending FlightAware ADS-B (KBRY)
23:10 37.7494 -85.0832 333° Northwest 315 362 9,900 -780 Descending FlightAware ADS-B (KBRY)
23:11 37.8065 -85.1626 312° West 317 365 9,900  Level FlightAware ADS-B (KBRY)
23:12 37.8555 -85.2569 303° West 313 360 9,900  Level FlightAware ADS-B (KBRY)
23:13 37.8977 -85.3547 299° West 313 360 9,900  Level FlightAware ADS-B (KBRY)
23:14 37.9389 -85.4497 299° West 304 350 9,900 -600 Level FlightAware ADS-B (KBRY)
23:15 37.9771 -85.5363 299° West 278 320 8,800 -1,320 Descending FlightAware ADS-B (KBRY)
23:16 38.0139 -85.6190 300° West 270 311 7,300 -1,440 Descending FlightAware ADS-B (KBRY)
23:17 38.0524 -85.7015 301° West 261 300 6,000 -720 Descending FlightAware ADS-B (KBRY)
23:18 38.0883 -85.7759 302° West 270 311 5,900 -60 Descending FlightAware ADS-B (KBRY)
23:19 38.1604 -85.8251 332° Northwest 281 323 5,900 -900 Level FlightAware ADS-B (KBRY)
23:21 38.2787 -85.8745 342° North 277 319 3,500 -1,260 Descending FlightAware ADS-B (EHVB)
23:22 38.3186 -85.8862 347° North 266 306 3,200 -780 Descending FlightAware ADS-B (EHVB)
23:22 38.3307 -85.8812 18° North 249 287 3,000 -480 Descending FlightAware ADS-B (EHVB)
23:22 38.3419 -85.8690 41° Northeast 227 261 3,000 -300 Level FlightAware ADS-B (EHVB)
23:22 38.3464 -85.8555 67° East 211 243 2,900 -300 Descending FlightAware ADS-B (EHVB)
23:22 38.3456 -85.8421 94° East 194 223 2,900 120 Level FlightAware ADS-B (EHVB)
23:23 38.3333 -85.8000 94° East 179 206 3,000 60 Climbing Louisville TRACON
23:24 38.3147 -85.7886 154° Southeast 203 234 3,000 -540 Level Indianapolis Center
23:25 38.2664 -85.7756 168° South 183 211 2,200 -840 Descending Indianapolis Center